ウェーク島 の空港の天気 - METARとTAF

ウェーク島空軍基地 ( PWAK / AWK ) - 合衆国領有小離島 ウェーク島
飛行場実況気象(Metar)
観測時間05/27 08:58 WAKT (05/26 20:58 UTC)
風向・風速東北東 3m/s
視程8000m
天気現象煙霧
少しの雲 雲底高度 790m
全天を覆う雲 雲底高度 1830m
気温28.6℃
湿度67%
気圧1018.2hPa
METARPWAK 262058Z AUTO 07006KT 8000 HZ FEW026 OVC060 29/22 A3005 RMK AO2 SLP182 T02860218 52012 $
過去の天気等 Google飛行場航空写真 Wunderground天気予報

過去48時間のMETAR

飛行場予報(TAF)
データがありません